Time;durP1;ratioP1;P1;durP2;ratioP2;P2;SDS_P1;SDS_P2;PMS_P1;PMS_P2;Temp;Humidity;BMP_temperature;BMP_pressure;BME280_temperature;BME280_humidity;BME280_pressure;Samples;Min_cycle;Max_cycle;Signal;HPM_P1;HPM_P2
2022/08/22 00:01:52;;;;;;;5.47;1.80;;;18.80;1.00;;;;;;5063744;28;20759;-63
2022/08/22 00:04:28;;;;;;;6.03;2.20;;;18.60;1.00;;;;;;5031111;28;20219;-62
2022/08/22 00:06:59;;;;;;;6.78;2.25;;;18.50;1.00;;;;;;5056866;28;20197;-62
2022/08/22 00:09:34;;;;;;;6.88;2.08;;;18.50;1.00;;;;;;5043877;28;20234;-63
2022/08/22 00:12:14;;;;;;;10.43;3.15;;;18.10;1.00;;;;;;5034697;28;20602;-63
2022/08/22 00:14:46;;;;;;;6.97;2.38;;;18.60;1.00;;;;;;5060040;28;20204;-62
2022/08/22 00:17:27;;;;;;;5.47;2.58;;;18.50;1.00;;;;;;5055758;28;20227;-63
2022/08/22 00:20:04;;;;;;;6.15;2.55;;;18.50;1.00;;;;;;5038327;28;20243;-63
2022/08/22 00:22:38;;;;;;;9.20;2.83;;;18.60;1.00;;;;;;5061849;28;20595;-62
2022/08/22 00:25:21;;;;;;;8.57;2.90;;;18.70;1.00;;;;;;5033839;28;20720;-63
2022/08/22 00:27:54;;;;;;;7.25;2.25;;;18.50;1.00;;;;;;5025208;28;20237;-63
2022/08/22 00:30:21;;;;;;;7.85;2.65;;;18.50;1.00;;;;;;5055053;28;20197;-63
2022/08/22 00:32:52;;;;;;;5.05;2.25;;;18.40;1.00;;;;;;5059235;28;20291;-63
2022/08/22 00:35:24;;;;;;;9.95;2.90;;;18.60;1.00;;;;;;5047052;28;20214;-63
2022/08/22 00:38:05;;;;;;;10.40;2.40;;;18.20;1.00;;;;;;5046321;28;20224;-64
2022/08/22 00:40:52;;;;;;;6.32;2.60;;;18.30;1.00;;;;;;5046708;28;20207;-63
2022/08/22 00:44:06;;;;;;;6.88;2.58;;;18.20;1.00;;;;;;5023991;28;20296;-63
2022/08/22 00:46:53;;;;;;;8.15;2.40;;;18.10;1.00;;;;;;5012219;28;20955;-62
2022/08/22 00:49:41;;;;;;;8.00;2.53;;;18.20;1.00;;;;;;5054048;28;20228;-62
2022/08/22 00:52:29;;;;;;;8.30;2.35;;;18.10;1.00;;;;;;5024704;28;20228;-62
2022/08/22 00:55:19;;;;;;;5.93;2.08;;;18.10;1.00;;;;;;5056799;28;20212;-62
2022/08/22 00:58:01;;;;;;;5.45;2.50;;;17.60;1.00;;;;;;5041236;28;20212;-62
2022/08/22 01:00:33;;;;;;;7.47;2.45;;;17.80;1.00;;;;;;5056155;28;20319;-62
2022/08/22 01:03:34;;;;;;;6.28;2.30;;;17.90;1.00;;;;;;5034364;28;20693;-62
2022/08/22 01:06:18;;;;;;;6.63;2.47;;;16.40;1.00;;;;;;5038872;28;20211;-62
2022/08/22 01:09:02;;;;;;;8.90;2.65;;;17.80;1.00;;;;;;5040738;28;20263;-62
2022/08/22 01:12:04;;;;;;;6.43;2.42;;;17.80;1.00;;;;;;5053730;28;21189;-62
2022/08/22 01:14:41;;;;;;;11.68;3.38;;;17.80;1.00;;;;;;5027358;28;21037;-62
2022/08/22 01:17:36;;;;;;;7.07;2.22;;;17.80;1.00;;;;;;5051790;28;20563;-65
2022/08/22 01:20:35;;;;;;;7.97;3.00;;;17.80;1.00;;;;;;5056795;28;20192;-62
2022/08/22 01:23:32;;;;;;;9.25;2.75;;;17.80;1.00;;;;;;5041221;28;20216;-62
2022/08/22 01:26:52;;;;;;;8.02;2.63;;;17.80;3.60;;;;;;5056733;28;22529;-62
2022/08/22 01:30:07;;;;;;;6.78;2.17;;;17.70;6.70;;;;;;5020929;28;20225;-62
2022/08/22 01:33:15;;;;;;;8.55;2.75;;;17.70;6.90;;;;;;5041919;28;21398;-62
2022/08/22 01:36:15;;;;;;;6.78;3.05;;;17.60;10.60;;;;;;5044458;28;20208;-63
2022/08/22 01:39:10;;;;;;;3.75;2.17;;;17.60;14.90;;;;;;5030515;28;23444;-62
2022/08/22 01:41:58;;;;;;;5.32;2.47;;;17.70;21.80;;;;;;5052308;28;20357;-62
2022/08/22 01:44:45;;;;;;;4.20;2.25;;;17.50;12.00;;;;;;5003858;28;20204;-63
2022/08/22 01:47:14;;;;;;;5.68;2.50;;;17.60;10.70;;;;;;5050097;28;20200;-62
2022/08/22 01:49:46;;;;;;;8.35;2.40;;;17.50;16.10;;;;;;5050852;28;20230;-62
2022/08/22 01:52:33;;;;;;;7.25;2.53;;;17.40;17.90;;;;;;5051203;28;20204;-63
2022/08/22 01:55:11;;;;;;;4.85;2.10;;;17.40;24.00;;;;;;5041249;28;20205;-62
2022/08/22 01:57:51;;;;;;;8.77;2.97;;;18.40;28.20;;;;;;5043281;28;20207;-63
2022/08/22 02:00:20;;;;;;;6.25;3.00;;;17.50;24.70;;;;;;5018102;28;20208;-62
2022/08/22 02:03:08;;;;;;;7.03;2.50;;;18.10;28.40;;;;;;5044643;28;20208;-63
2022/08/22 02:05:40;;;;;;;7.25;2.70;;;17.50;29.00;;;;;;5058919;28;20666;-62
2022/08/22 02:08:31;;;;;;;7.65;2.78;;;17.50;29.20;;;;;;5050475;28;20697;-62
2022/08/22 02:11:04;;;;;;;7.05;2.83;;;17.50;25.80;;;;;;5048400;28;20223;-62
2022/08/22 02:13:53;;;;;;;5.85;2.45;;;17.40;27.40;;;;;;5052718;28;20204;-62
2022/08/22 02:16:26;;;;;;;6.20;2.63;;;17.40;29.00;;;;;;5037602;28;20330;-62
2022/08/22 02:19:10;;;;;;;6.55;2.53;;;16.30;29.90;;;;;;5042564;28;20204;-62
2022/08/22 02:21:44;;;;;;;7.50;3.33;;;17.50;29.40;;;;;;5058603;28;20235;-62
2022/08/22 02:24:25;;;;;;;7.35;3.15;;;17.40;35.70;;;;;;5045222;28;20207;-62
2022/08/22 02:27:06;;;;;;;5.30;2.38;;;17.40;35.00;;;;;;5059394;28;20196;-62
2022/08/22 02:29:40;;;;;;;5.93;3.17;;;17.30;40.10;;;;;;5045238;28;20223;-62
2022/08/22 02:32:17;;;;;;;6.28;2.75;;;17.40;41.20;;;;;;5035899;28;20193;-62
2022/08/22 02:34:48;;;;;;;3.92;2.58;;;17.10;40.00;;;;;;5045760;28;20270;-62
2022/08/22 02:37:21;;;;;;;5.93;2.97;;;17.30;38.80;;;;;;5059372;28;20201;-62
2022/08/22 02:39:57;;;;;;;6.60;3.50;;;17.30;42.80;;;;;;5042744;28;20212;-62
2022/08/22 02:42:35;;;;;;;9.73;3.63;;;17.50;45.00;;;;;;5058740;28;20192;-64
2022/08/22 02:45:15;;;;;;;5.70;2.50;;;17.30;45.70;;;;;;5050453;28;20969;-62
2022/08/22 02:47:51;;;;;;;4.93;3.15;;;16.10;45.80;;;;;;5035382;28;20200;-62
2022/08/22 02:50:21;;;;;;;7.65;3.03;;;17.20;49.90;;;;;;5036959;28;20228;-62
2022/08/22 02:52:57;;;;;;;5.88;2.55;;;17.20;51.20;;;;;;5053788;28;20297;-62
2022/08/22 02:55:36;;;;;;;7.32;3.33;;;17.10;51.70;;;;;;5038503;28;20215;-62
2022/08/22 02:58:08;;;;;;;5.40;2.65;;;17.10;52.60;;;;;;5053877;28;20211;-62
2022/08/22 03:00:44;;;;;;;6.70;2.70;;;17.10;55.80;;;;;;5042028;28;20701;-62
2022/08/22 03:03:19;;;;;;;3.25;2.00;;;17.10;58.10;;;;;;5030194;28;20227;-63
2022/08/22 03:05:55;;;;;;;3.72;2.50;;;16.70;65.90;;;;;;5052666;28;20207;-63
2022/08/22 03:08:25;;;;;;;3.60;2.45;;;17.00;65.80;;;;;;5052751;28;20221;-63
2022/08/22 03:11:06;;;;;;;2.65;2.10;;;17.70;72.30;;;;;;5038019;28;20274;-62
2022/08/22 03:13:52;;;;;;;8.20;2.20;;;17.90;70.80;;;;;;5055732;28;20669;-62
2022/08/22 03:16:27;;;;;;;7.45;2.85;;;17.20;67.40;;;;;;5039629;28;20205;-62
2022/08/22 03:19:01;;;;;;;9.90;3.70;;;17.30;73.60;;;;;;5026544;28;20220;-62
2022/08/22 03:21:35;;;;;;;4.60;2.92;;;17.30;73.50;;;;;;5054863;28;20814;-62
2022/08/22 03:24:12;;;;;;;6.72;3.03;;;17.20;71.90;;;;;;5052028;28;20197;-63
2022/08/22 03:26:48;;;;;;;7.70;4.15;;;17.20;67.70;;;;;;5037253;28;20220;-62
2022/08/22 03:29:20;;;;;;;7.47;3.53;;;17.30;68.80;;;;;;5045454;28;20220;-62
2022/08/22 03:32:07;;;;;;;8.45;3.90;;;17.20;66.50;;;;;;5040903;28;20747;-62
2022/08/22 03:34:36;;;;;;;7.03;3.75;;;17.10;64.00;;;;;;5032759;28;20204;-63
2022/08/22 03:37:10;;;;;;;7.63;3.63;;;17.00;63.20;;;;;;5051238;28;20287;-62
2022/08/22 03:40:00;;;;;;;10.18;3.58;;;17.00;63.70;;;;;;5069703;28;20218;-63
2022/08/22 03:43:03;;;;;;;8.20;3.53;;;18.70;67.60;;;;;;5030442;28;22820;-62
2022/08/22 03:45:53;;;;;;;5.35;3.35;;;16.90;71.30;;;;;;5059547;28;20196;-63
2022/08/22 03:48:50;;;;;;;8.82;3.75;;;17.10;67.50;;;;;;5050858;28;20207;-63
2022/08/22 03:51:30;;;;;;;6.60;3.53;;;16.70;72.20;;;;;;5036761;28;20208;-63
2022/08/22 03:54:36;;;;;;;8.13;3.47;;;17.00;70.00;;;;;;5067031;28;20196;-62
2022/08/22 03:57:32;;;;;;;5.60;3.53;;;17.00;74.40;;;;;;5016961;28;20204;-63
2022/08/22 04:00:18;;;;;;;6.78;3.85;;;16.90;74.30;;;;;;5059794;28;20251;-63
2022/08/22 04:03:31;;;;;;;6.78;3.22;;;16.90;74.30;;;;;;5037605;28;20674;-62
2022/08/22 04:06:24;;;;;;;8.18;3.80;;;16.50;71.50;;;;;;5000383;28;20203;-63
2022/08/22 04:09:16;;;;;;;13.43;4.55;;;16.80;76.10;;;;;;5043124;28;20232;-62
2022/08/22 04:12:03;;;;;;;9.73;4.45;;;16.60;85.60;;;;;;5029446;28;20212;-63
2022/08/22 04:14:59;;;;;;;8.88;4.53;;;16.90;83.10;;;;;;5049258;28;20211;-62
2022/08/22 04:17:52;;;;;;;8.38;5.13;;;16.90;87.00;;;;;;5042645;28;20219;-62
2022/08/22 04:21:02;;;;;;;6.53;4.28;;;16.90;87.40;;;;;;5031725;28;20265;-62
2022/08/22 04:24:19;;;;;;;7.35;4.97;;;16.80;88.40;;;;;;5060428;28;20196;-63
2022/08/22 04:26:52;;;;;;;11.05;5.20;;;16.80;89.60;;;;;;4944948;28;20829;-63
2022/08/22 04:29:25;;;;;;;10.50;5.10;;;16.80;91.10;;;;;;5036037;28;20239;-62
2022/08/22 04:31:56;;;;;;;10.60;5.07;;;16.80;91.90;;;;;;5049297;28;20201;-63
2022/08/22 04:34:32;;;;;;;8.18;4.55;;;21.10;96.30;;;;;;5036629;28;20209;-63
2022/08/22 04:37:04;;;;;;;8.60;4.78;;;16.80;92.20;;;;;;5056835;28;20207;-62
2022/08/22 04:39:36;;;;;;;8.70;4.13;;;16.80;93.00;;;;;;5057346;28;20235;-63
2022/08/22 04:42:06;;;;;;;13.07;5.07;;;16.80;92.30;;;;;;5049994;28;20697;-63
2022/08/22 04:44:41;;;;;;;11.02;4.85;;;16.70;90.60;;;;;;5042388;28;20645;-62
2022/08/22 04:47:16;;;;;;;11.77;4.75;;;16.70;90.90;;;;;;5060446;28;21530;-62
2022/08/22 04:49:49;;;;;;;11.20;4.85;;;16.80;92.40;;;;;;5047032;28;20234;-62
2022/08/22 04:52:31;;;;;;;8.10;4.53;;;17.20;92.70;;;;;;5031063;28;20673;-62
2022/08/22 04:55:10;;;;;;;8.13;3.97;;;16.90;91.80;;;;;;5060495;28;20203;-62
2022/08/22 04:57:48;;;;;;;12.55;4.38;;;16.60;88.40;;;;;;5015638;28;21030;-63
2022/08/22 05:00:17;;;;;;;7.88;3.40;;;16.80;88.20;;;;;;5053441;28;20204;-62
2022/08/22 05:02:50;;;;;;;7.38;3.88;;;16.60;81.20;;;;;;5056304;28;20200;-63
2022/08/22 05:05:23;;;;;;;8.45;4.50;;;16.60;83.30;;;;;;5055460;28;20201;-63
2022/08/22 05:07:53;;;;;;;11.25;4.60;;;16.60;86.40;;;;;;5031578;28;20228;-62
2022/08/22 05:10:24;;;;;;;6.22;3.95;;;16.70;90.50;;;;;;5059126;28;20228;-62
2022/08/22 05:12:55;;;;;;;15.23;5.35;;;16.70;92.50;;;;;;5039707;28;20199;-62
2022/08/22 05:15:26;;;;;;;7.22;4.82;;;16.80;92.20;;;;;;5038602;28;20424;-62
2022/08/22 05:17:58;;;;;;;8.55;4.43;;;16.90;90.90;;;;;;5060649;28;20204;-62
2022/08/22 05:20:28;;;;;;;7.15;4.60;;;16.90;88.80;;;;;;5043467;28;20208;-63
2022/08/22 05:22:59;;;;;;;12.68;4.72;;;16.80;84.60;;;;;;5037919;28;20631;-62
2022/08/22 05:25:32;;;;;;;8.68;4.45;;;16.90;85.40;;;;;;5051657;28;20216;-63
2022/08/22 05:28:09;;;;;;;6.78;4.40;;;16.80;85.30;;;;;;5046035;28;20208;-62
2022/08/22 05:30:38;;;;;;;10.18;4.22;;;16.80;85.70;;;;;;5047218;28;20728;-63
2022/08/22 05:33:13;;;;;;;8.23;4.55;;;18.30;92.50;;;;;;5048109;28;20235;-62
2022/08/22 05:35:43;;;;;;;11.38;5.95;;;16.80;90.90;;;;;;5057760;28;20200;-63
2022/08/22 05:38:14;;;;;;;9.98;4.85;;;16.90;92.00;;;;;;5015165;28;20228;-62
2022/08/22 05:40:41;;;;;;;10.32;5.50;;;17.10;92.70;;;;;;5053418;28;20201;-63
2022/08/22 05:43:11;;;;;;;9.52;5.32;;;16.80;92.70;;;;;;5042422;28;20197;-62
2022/08/22 05:45:44;;;;;;;9.32;5.05;;;17.20;91.80;;;;;;5033525;28;20996;-63
2022/08/22 05:48:16;;;;;;;15.30;5.10;;;17.60;91.30;;;;;;5048280;28;20196;-62
2022/08/22 05:50:48;;;;;;;14.60;4.93;;;17.40;90.60;;;;;;5047751;28;20630;-62
2022/08/22 05:53:23;;;;;;;12.15;5.03;;;17.80;89.70;;;;;;5030577;28;20281;-63
2022/08/22 05:55:58;;;;;;;12.95;4.90;;;17.60;89.00;;;;;;5061705;28;20241;-63
2022/08/22 05:58:49;;;;;;;10.85;4.50;;;17.60;88.00;;;;;;5047389;28;20202;-63
2022/08/22 06:01:30;;;;;;;14.30;4.72;;;17.70;85.40;;;;;;5052384;28;22784;-63
2022/08/22 06:04:13;;;;;;;11.52;4.60;;;17.80;86.10;;;;;;5029916;28;20547;-63
2022/08/22 06:06:46;;;;;;;11.20;4.90;;;18.00;88.40;;;;;;5058279;28;20192;-63
2022/08/22 06:09:19;;;;;;;10.57;4.95;;;17.90;87.20;;;;;;5033135;28;20236;-62
2022/08/22 06:11:57;;;;;;;7.78;4.65;;;17.80;86.00;;;;;;5056833;28;20197;-62
2022/08/22 06:14:31;;;;;;;11.98;4.57;;;17.90;84.90;;;;;;5040418;28;21175;-62
2022/08/22 06:17:06;;;;;;;13.23;4.75;;;18.00;84.90;;;;;;5055270;28;20755;-62
2022/08/22 06:19:37;;;;;;;14.45;4.80;;;18.20;83.40;;;;;;5042299;28;20219;-63
2022/08/22 06:22:06;;;;;;;12.20;4.50;;;18.00;85.00;;;;;;5059648;28;20204;-62
2022/08/22 06:24:36;;;;;;;10.63;3.92;;;18.10;82.30;;;;;;5035721;28;20208;-63
2022/08/22 06:27:08;;;;;;;18.92;4.38;;;18.30;80.70;;;;;;5039599;28;20281;-63
2022/08/22 06:29:37;;;;;;;9.40;3.63;;;18.20;79.10;;;;;;5040905;28;20225;-62
2022/08/22 06:32:12;;;;;;;8.20;4.10;;;18.10;78.50;;;;;;5046535;28;20208;-63
2022/08/22 06:34:42;;;;;;;9.65;4.40;;;18.30;76.90;;;;;;5049241;28;20200;-63
2022/08/22 06:37:16;;;;;;;12.55;3.75;;;18.40;76.10;;;;;;5059673;28;20223;-62
2022/08/22 06:39:48;;;;;;;11.57;3.63;;;18.50;74.50;;;;;;5031566;28;20231;-62
2022/08/22 06:42:20;;;;;;;11.27;3.33;;;18.60;68.40;;;;;;5055570;28;20200;-63
2022/08/22 06:44:50;;;;;;;17.02;3.65;;;18.50;65.10;;;;;;5042424;28;20675;-63
2022/08/22 06:47:22;;;;;;;16.67;3.50;;;18.80;55.90;;;;;;5047536;28;20187;-63
2022/08/22 06:49:52;;;;;;;10.25;3.30;;;18.70;54.70;;;;;;5049294;28;20220;-62
2022/08/22 06:52:23;;;;;;;8.77;2.97;;;18.80;51.70;;;;;;5053900;28;20207;-63
2022/08/22 06:54:55;;;;;;;8.70;3.10;;;18.80;48.00;;;;;;5056813;28;20201;-62
2022/08/22 06:57:32;;;;;;;11.50;3.22;;;19.00;35.90;;;;;;5033753;28;20200;-63
2022/08/22 07:00:01;;;;;;;7.03;2.75;;;19.00;30.40;;;;;;5058608;28;20199;-63
2022/08/22 07:02:34;;;;;;;11.07;3.95;;;19.00;28.20;;;;;;5029548;28;20574;-63
2022/08/22 07:05:02;;;;;;;13.15;2.85;;;19.10;22.60;;;;;;5058666;28;20211;-63
2022/08/22 07:07:30;;;;;;;13.15;3.03;;;19.30;2.00;;;;;;5044752;28;20231;-63
2022/08/22 07:09:57;;;;;;;6.45;2.90;;;19.50;1.00;;;;;;5057311;28;20803;-63
2022/08/22 07:12:30;;;;;;;9.10;2.53;;;19.20;1.00;;;;;;5042872;28;20574;-63
2022/08/22 07:15:11;;;;;;;11.52;2.65;;;19.10;1.00;;;;;;5061541;28;20251;-63
2022/08/22 07:17:49;;;;;;;10.55;2.53;;;19.30;1.00;;;;;;5040301;28;20204;-65
2022/08/22 07:20:22;;;;;;;8.20;2.20;;;19.30;1.00;;;;;;5063159;28;20201;-63
2022/08/22 07:22:56;;;;;;;8.15;2.50;;;19.30;1.00;;;;;;5049387;28;20204;-63
2022/08/22 07:25:24;;;;;;;11.52;2.88;;;19.40;1.00;;;;;;5064735;28;20203;-63
2022/08/22 07:28:14;;;;;;;8.75;2.67;;;19.50;1.00;;;;;;5038639;28;20213;-62
2022/08/22 07:30:53;;;;;;;6.15;2.15;;;19.60;1.00;;;;;;5038699;28;20243;-64
2022/08/22 07:33:43;;;;;;;9.60;2.50;;;19.60;1.00;;;;;;5049668;28;20292;-62
2022/08/22 07:36:25;;;;;;;12.38;2.13;;;19.70;1.00;;;;;;5033641;28;20286;-63
2022/08/22 07:39:05;;;;;;;7.03;2.70;;;19.70;1.00;;;;;;5056414;28;21302;-63
2022/08/22 07:41:44;;;;;;;4.18;2.03;;;19.80;99.90;;;;;;5044124;28;20199;-64
2022/08/22 07:44:16;;;;;;;7.50;2.05;;;20.10;99.90;;;;;;5055607;28;20200;-64
2022/08/22 07:46:55;;;;;;;10.65;2.20;;;20.00;99.90;;;;;;5040501;28;20201;-63
2022/08/22 07:49:25;;;;;;;7.78;2.22;;;20.10;99.90;;;;;;5048776;28;20197;-63
2022/08/22 07:51:54;;;;;;;10.55;2.53;;;20.00;99.90;;;;;;5045776;28;20251;-64
2022/08/22 07:54:26;;;;;;;6.43;2.10;;;20.10;99.90;;;;;;5061024;28;20193;-63
2022/08/22 07:56:58;;;;;;;5.13;1.92;;;19.80;99.90;;;;;;5026835;28;20618;-64
2022/08/22 07:59:27;;;;;;;10.40;2.20;;;20.00;1.00;;;;;;5060439;28;20200;-63
2022/08/22 08:01:58;;;;;;;6.80;2.50;;;20.10;1.00;;;;;;5056541;28;20203;-63
2022/08/22 08:04:29;;;;;;;8.23;2.25;;;20.10;99.90;;;;;;5033220;28;20228;-63
2022/08/22 08:06:59;;;;;;;8.90;2.53;;;20.20;99.90;;;;;;5058918;28;20188;-63
2022/08/22 08:09:31;;;;;;;5.60;2.30;;;20.20;1.00;;;;;;5046434;28;20205;-63
2022/08/22 08:12:00;;;;;;;5.25;1.90;;;20.20;1.00;;;;;;5051614;28;20219;-64
2022/08/22 08:14:27;;;;;;;8.10;1.77;;;20.30;28.70;;;;;;5036879;28;20209;-63
2022/08/22 08:17:00;;;;;;;7.00;2.38;;;20.30;99.90;;;;;;5055226;28;20196;-62
2022/08/22 08:19:29;;;;;;;5.05;2.20;;;20.30;1.00;;;;;;5040227;28;20598;-63
2022/08/22 08:21:57;;;;;;;6.53;2.00;;;20.30;99.90;;;;;;5045555;28;20693;-63
2022/08/22 08:24:29;;;;;;;5.55;2.25;;;20.40;1.00;;;;;;5045532;28;20227;-62
2022/08/22 08:29:53;;;;;;;4.18;2.00;;;20.40;99.90;;;;;;5028296;28;20277;-63
2022/08/22 08:32:22;;;;;;;6.10;1.95;;;20.50;1.00;;;;;;5048051;28;20224;-63
2022/08/22 08:34:49;;;;;;;5.13;1.70;;;20.50;1.00;;;;;;5038503;28;20258;-63
2022/08/22 08:37:24;;;;;;;7.65;2.10;;;20.40;1.00;;;;;;5047019;28;20201;-64
2022/08/22 08:39:56;;;;;;;4.05;1.95;;;20.40;1.00;;;;;;5042875;28;20235;-64
2022/08/22 08:45:55;;;;;;;7.88;2.08;;;20.40;99.90;;;;;;5062198;28;20257;-63
2022/08/22 08:49:13;;;;;;;7.30;2.10;;;20.40;1.00;;;;;;5039208;28;21425;-63
2022/08/22 08:51:58;;;;;;;8.48;1.75;;;20.40;1.00;;;;;;4977689;28;22318;-63
2022/08/22 08:54:50;;;;;;;6.45;1.80;;;20.50;1.00;;;;;;5020940;28;20688;-63
2022/08/22 08:57:28;;;;;;;4.80;1.75;;;20.50;1.00;;;;;;5051517;28;20337;-63
2022/08/22 09:00:06;;;;;;;5.05;1.77;;;20.60;1.00;;;;;;5015572;28;20219;-63
2022/08/22 09:02:52;;;;;;;7.25;1.63;;;20.50;1.00;;;;;;5058721;28;20197;-63
2022/08/22 09:05:57;;;;;;;6.63;2.22;;;20.50;1.00;;;;;;5036720;28;20228;-62
2022/08/22 09:08:47;;;;;;;11.25;3.03;;;20.50;6.70;;;;;;5044673;28;20304;-62
2022/08/22 09:11:57;;;;;;;4.93;1.65;;;20.50;46.80;;;;;;5046896;28;20295;-63
2022/08/22 09:14:44;;;;;;;7.50;2.10;;;20.60;99.90;;;;;;5046727;28;20204;-63
2022/08/22 09:17:40;;;;;;;5.35;2.20;;;21.00;99.90;;;;;;5055775;28;20209;-63
2022/08/22 09:20:33;;;;;;;6.13;1.75;;;20.80;99.90;;;;;;5058256;28;20200;-63
2022/08/22 09:23:40;;;;;;;6.25;2.35;;;20.90;1.00;;;;;;5041248;28;20201;-63
2022/08/22 09:26:16;;;;;;;6.78;2.03;;;21.00;1.00;;;;;;5042572;28;20251;-62
2022/08/22 09:28:52;;;;;;;7.55;2.10;;;21.10;1.00;;;;;;5053248;28;20197;-62
2022/08/22 09:31:35;;;;;;;4.80;2.10;;;21.40;1.00;;;;;;5018100;28;20972;-62
2022/08/22 09:34:10;;;;;;;3.63;1.63;;;21.30;99.90;;;;;;5051493;28;20216;-62
2022/08/22 09:36:51;;;;;;;8.43;2.53;;;21.40;1.00;;;;;;5037030;28;20214;-63
2022/08/22 09:39:25;;;;;;;7.30;1.90;;;21.60;1.00;;;;;;5026720;28;20231;-62
2022/08/22 09:41:59;;;;;;;5.72;1.85;;;21.90;1.00;;;;;;5037424;28;21090;-62
2022/08/22 09:44:37;;;;;;;5.18;2.05;;;21.90;1.00;;;;;;5056816;28;20216;-62
2022/08/22 09:47:14;;;;;;;5.70;2.00;;;21.70;1.00;;;;;;5006498;28;21216;-62
2022/08/22 09:49:51;;;;;;;10.32;1.90;;;21.90;99.90;;;;;;5049557;28;20227;-64
2022/08/22 09:52:39;;;;;;;7.30;2.20;;;22.00;99.90;;;;;;5038391;28;20297;-64
2022/08/22 09:55:11;;;;;;;7.13;1.90;;;22.00;99.90;;;;;;5045216;28;20198;-62
2022/08/22 09:57:41;;;;;;;3.53;1.70;;;22.00;79.00;;;;;;5043491;28;21833;-62
2022/08/22 10:00:32;;;;;;;4.07;1.80;;;22.00;99.90;;;;;;5043925;28;20200;-62
2022/08/22 10:03:15;;;;;;;7.25;1.70;;;22.20;1.00;;;;;;5017313;28;20208;-62
2022/08/22 10:05:45;;;;;;;5.13;1.92;;;22.20;1.00;;;;;;5059464;28;20207;-64
2022/08/22 10:08:41;;;;;;;5.45;1.60;;;22.20;1.00;;;;;;5039521;28;20231;-63
2022/08/22 10:11:23;;;;;;;5.07;1.60;;;22.20;1.00;;;;;;5048441;28;20231;-64
2022/08/22 10:13:56;;;;;;;5.45;1.90;;;22.20;1.00;;;;;;5041399;28;20211;-64
2022/08/22 10:16:49;;;;;;;7.57;1.88;;;22.20;1.00;;;;;;5046612;28;20212;-63
2022/08/22 10:19:26;;;;;;;5.03;1.52;;;22.30;1.00;;;;;;5012973;28;20227;-64
2022/08/22 10:22:26;;;;;;;6.45;1.92;;;22.10;1.00;;;;;;5039330;28;20215;-64
2022/08/22 10:25:04;;;;;;;4.38;2.08;;;22.30;1.00;;;;;;5041300;28;21976;-64
2022/08/22 10:27:53;;;;;;;5.72;2.15;;;22.30;1.00;;;;;;5041724;28;20228;-64
2022/08/22 10:30:25;;;;;;;5.45;2.35;;;22.40;1.00;;;;;;5040695;28;20205;-63
2022/08/22 10:33:01;;;;;;;5.85;2.30;;;22.40;1.00;;;;;;5043653;28;20196;-64
2022/08/22 10:35:32;;;;;;;7.45;2.08;;;22.50;1.00;;;;;;5030975;28;20891;-64
2022/08/22 10:38:05;;;;;;;4.38;1.90;;;22.40;1.00;;;;;;5034685;28;20318;-64
2022/08/22 10:40:37;;;;;;;6.07;2.20;;;22.20;1.00;;;;;;5054777;28;20204;-64
2022/08/22 10:43:11;;;;;;;6.00;1.85;;;22.30;1.00;;;;;;5041485;28;20223;-61
2022/08/22 10:45:40;;;;;;;4.80;2.30;;;22.30;1.00;;;;;;5048131;28;20247;-62
2022/08/22 10:48:38;;;;;;;4.05;1.70;;;22.30;1.00;;;;;;5041751;28;21068;-62
2022/08/22 10:51:18;;;;;;;6.18;2.17;;;22.30;1.00;;;;;;5048141;28;21337;-62
2022/08/22 10:54:03;;;;;;;4.53;2.30;;;22.30;1.00;;;;;;5038896;28;20235;-62
2022/08/22 10:56:42;;;;;;;6.35;2.10;;;22.30;1.00;;;;;;5057204;28;20200;-61
2022/08/22 10:59:23;;;;;;;8.05;2.20;;;22.20;1.00;;;;;;5044120;28;20208;-62
2022/08/22 11:02:01;;;;;;;4.72;1.92;;;22.30;43.20;;;;;;5045075;28;20211;-62
2022/08/22 11:04:43;;;;;;;1.92;1.73;;;22.30;99.90;;;;;;5037184;28;20681;-62
2022/08/22 11:07:42;;;;;;;4.28;1.92;;;22.30;99.90;;;;;;5057745;28;20230;-62
2022/08/22 11:10:23;;;;;;;5.63;2.70;;;22.30;99.90;;;;;;5048128;28;20217;-62
2022/08/22 11:13:02;;;;;;;3.95;1.80;;;22.40;99.90;;;;;;5048880;28;20725;-62
2022/08/22 11:15:56;;;;;;;5.18;2.20;;;22.30;94.70;;;;;;5044841;28;20245;-62
2022/08/22 11:18:35;;;;;;;3.85;1.85;;;22.30;53.40;;;;;;5038252;28;20211;-62
2022/08/22 11:21:06;;;;;;;5.88;2.20;;;22.40;1.00;;;;;;5030434;28;20219;-62
2022/08/22 11:23:42;;;;;;;11.63;2.50;;;22.50;1.00;;;;;;5054271;28;20200;-62
2022/08/22 11:26:22;;;;;;;8.25;2.47;;;22.70;1.00;;;;;;5056226;28;20300;-62
2022/08/22 11:29:02;;;;;;;5.00;2.17;;;22.60;1.00;;;;;;5061105;28;20339;-64
2022/08/22 11:31:39;;;;;;;6.07;1.90;;;22.60;1.00;;;;;;5058288;28;20224;-61
2022/08/22 11:34:12;;;;;;;4.25;2.05;;;22.50;1.00;;;;;;5044580;28;20211;-61
2022/08/22 11:36:44;;;;;;;3.38;2.20;;;22.50;1.00;;;;;;5036889;28;20228;-62
2022/08/22 11:39:23;;;;;;;4.22;1.92;;;22.40;1.00;;;;;;5038007;28;20851;-64
2022/08/22 11:41:58;;;;;;;5.05;2.30;;;22.50;1.00;;;;;;5066001;28;20204;-64
2022/08/22 11:44:30;;;;;;;6.80;2.00;;;22.50;1.00;;;;;;5044033;28;20207;-64
2022/08/22 11:47:00;;;;;;;4.68;2.20;;;22.40;1.00;;;;;;5052149;28;20217;-64
2022/08/22 11:49:46;;;;;;;6.55;2.53;;;22.50;1.00;;;;;;5038250;28;20205;-64
2022/08/22 11:52:43;;;;;;;3.17;1.90;;;22.60;1.00;;;;;;5036348;22;20233;-64
2022/08/22 11:55:25;;;;;;;3.90;1.88;;;22.50;1.00;;;;;;4990163;28;20373;-64
2022/08/22 11:57:55;;;;;;;5.32;2.30;;;22.50;1.00;;;;;;5031659;28;20217;-64
2022/08/22 12:00:32;;;;;;;10.82;2.22;;;22.60;1.00;;;;;;5017402;28;20221;-64
2022/08/22 12:03:40;;;;;;;6.68;2.47;;;22.60;1.00;;;;;;5015504;28;20904;-64
2022/08/22 12:06:32;;;;;;;5.75;2.20;;;22.70;1.00;;;;;;5036095;28;20205;-63
2022/08/22 12:09:28;;;;;;;2.92;1.98;;;22.70;1.00;;;;;;5036169;28;20221;-64
2022/08/22 12:12:11;;;;;;;7.45;2.22;;;22.80;1.00;;;;;;5036566;28;20240;-64
2022/08/22 12:14:44;;;;;;;5.05;1.90;;;22.80;1.00;;;;;;5013753;28;20705;-64
2022/08/22 12:17:23;;;;;;;5.35;2.05;;;22.80;1.00;;;;;;5014901;28;20224;-61
2022/08/22 12:20:03;;;;;;;5.13;2.03;;;22.80;1.00;;;;;;5019461;28;21841;-61
2022/08/22 12:22:59;;;;;;;6.75;2.55;;;22.80;1.00;;;;;;4981529;28;26337;-62
2022/08/22 12:25:46;;;;;;;6.40;2.47;;;20.60;1.00;;;;;;5015129;28;20788;-65
2022/08/22 12:28:27;;;;;;;7.22;2.30;;;22.90;1.00;;;;;;5016316;28;20228;-64
2022/08/22 12:31:05;;;;;;;7.43;1.95;;;22.90;1.00;;;;;;5027938;28;20316;-64
2022/08/22 12:33:47;;;;;;;7.82;2.17;;;22.90;1.00;;;;;;5033411;28;20224;-64
2022/08/22 12:36:36;;;;;;;6.47;2.50;;;22.90;1.00;;;;;;5024731;28;20259;-64
2022/08/22 12:39:23;;;;;;;6.53;2.03;;;23.10;99.90;;;;;;5006546;28;20234;-62
2022/08/22 12:42:22;;;;;;;9.23;2.42;;;23.20;1.00;;;;;;5014490;28;20232;-61
2022/08/22 12:45:08;;;;;;;4.57;2.40;;;23.20;1.00;;;;;;5032567;28;20284;-62
2022/08/22 12:47:45;;;;;;;5.13;2.25;;;23.40;99.90;;;;;;5019949;28;20220;-62
2022/08/22 12:50:26;;;;;;;4.47;1.92;;;23.40;99.90;;;;;;5025297;28;20205;-62
2022/08/22 12:53:09;;;;;;;6.72;2.38;;;23.60;99.90;;;;;;5023356;28;20308;-62
2022/08/22 12:55:53;;;;;;;6.20;2.10;;;23.60;99.90;;;;;;5018503;28;20231;-62
2022/08/22 12:58:30;;;;;;;5.47;2.17;;;23.70;99.90;;;;;;4994351;28;20341;-63
2022/08/22 13:01:04;;;;;;;7.32;2.35;;;23.80;99.90;;;;;;5022825;28;20225;-62
2022/08/22 13:03:34;;;;;;;4.40;1.92;;;23.90;99.90;;;;;;5006160;28;20353;-62
2022/08/22 13:06:08;;;;;;;5.03;2.38;;;24.10;27.40;;;;;;5030386;28;20217;-62
2022/08/22 13:08:38;;;;;;;6.47;2.17;;;24.00;39.20;;;;;;4995875;28;20368;-62
2022/08/22 13:11:08;;;;;;;8.95;3.40;;;24.20;1.00;;;;;;5018357;28;20232;-62
2022/08/22 13:13:38;;;;;;;8.30;2.67;;;24.30;1.00;;;;;;5021477;28;22424;-62
2022/08/22 13:16:10;;;;;;;5.70;2.30;;;24.00;1.00;;;;;;5010366;28;20216;-62
2022/08/22 13:18:45;;;;;;;7.93;2.80;;;24.00;1.00;;;;;;5019697;28;20229;-62
2022/08/22 13:21:15;;;;;;;4.43;2.10;;;;;;;;;;5024273;28;20262;-62
2022/08/22 13:23:45;;;;;;;4.18;2.20;;;23.80;58.30;;;;;;5008065;28;20236;-62
2022/08/22 13:26:16;;;;;;;7.47;2.10;;;23.70;1.00;;;;;;4996143;28;20247;-62
2022/08/22 13:28:47;;;;;;;2.92;1.88;;;23.80;1.00;;;;;;5019918;28;20229;-62
2022/08/22 13:31:23;;;;;;;6.10;2.10;;;24.20;10.80;;;;;;5020961;28;20224;-62
2022/08/22 13:33:56;;;;;;;4.72;2.15;;;24.00;1.00;;;;;;5020028;28;21592;-62
2022/08/22 13:36:24;;;;;;;3.10;2.05;;;24.00;1.00;;;;;;5009721;28;20200;-62
2022/08/22 13:38:56;;;;;;;6.00;2.20;;;24.00;1.00;;;;;;5018141;28;20275;-62
2022/08/22 13:41:28;;;;;;;5.43;2.50;;;23.90;1.00;;;;;;4977456;28;20798;-63
2022/08/22 13:44:16;;;;;;;4.65;2.20;;;24.20;1.00;;;;;;5013064;28;20224;-63
2022/08/22 13:46:46;;;;;;;5.70;2.30;;;24.00;1.00;;;;;;5029629;28;22177;-62
2022/08/22 13:49:18;;;;;;;2.20;1.92;;;23.90;1.00;;;;;;5020813;28;20221;-62
2022/08/22 13:51:50;;;;;;;4.50;2.40;;;26.20;1.00;;;;;;5027735;28;20244;-63
2022/08/22 13:54:41;;;;;;;3.53;1.90;;;23.80;1.00;;;;;;4994416;28;20221;-63
2022/08/22 13:57:16;;;;;;;6.25;2.20;;;23.90;1.00;;;;;;5011949;28;20236;-63
2022/08/22 13:59:48;;;;;;;4.43;2.20;;;23.90;1.00;;;;;;5020728;28;20212;-64